Time;durP1;ratioP1;P1;durP2;ratioP2;P2;SDS_P1;SDS_P2;PMS_P1;PMS_P2;Temp;Humidity;BMP_temperature;BMP_pressure;BME280_temperature;BME280_humidity;BME280_pressure;Samples;Min_cycle;Max_cycle;Signal;HPM_P1;HPM_P2
2023/04/06 00:01:39;;;;;;;6.78;4.38;;;2.50;99.90;;;;;;4947494;28;20468;-69
2023/04/06 00:04:06;;;;;;;6.25;4.78;;;2.50;99.90;;;;;;4947314;28;20078;-68
2023/04/06 00:06:32;;;;;;;5.07;4.35;;;2.40;99.90;;;;;;4941071;28;20073;-68
2023/04/06 00:08:59;;;;;;;7.03;4.80;;;2.40;99.90;;;;;;4965256;28;20050;-68
2023/04/06 00:11:25;;;;;;;5.72;4.28;;;2.30;99.90;;;;;;4959740;28;20050;-68
2023/04/06 00:13:51;;;;;;;7.25;5.07;;;2.30;99.90;;;;;;4949606;28;20054;-69
2023/04/06 00:16:16;;;;;;;5.55;4.55;;;2.30;99.90;;;;;;4945884;28;20038;-69
2023/04/06 00:18:42;;;;;;;7.78;4.57;;;2.20;99.90;;;;;;4962680;28;20085;-68
2023/04/06 00:21:09;;;;;;;7.65;4.38;;;2.20;99.90;;;;;;4947912;28;20101;-68
2023/04/06 00:23:35;;;;;;;5.05;4.28;;;2.10;99.90;;;;;;4945593;28;20081;-68
2023/04/06 00:26:01;;;;;;;7.20;4.65;;;2.10;99.90;;;;;;4945894;28;20082;-69
2023/04/06 00:28:28;;;;;;;8.00;5.45;;;2.00;99.90;;;;;;4961373;28;20038;-69
2023/04/06 00:30:55;;;;;;;6.45;5.13;;;2.00;99.90;;;;;;4944097;28;20149;-69
2023/04/06 00:33:21;;;;;;;9.13;5.07;;;1.90;99.90;;;;;;4947268;28;20039;-69
2023/04/06 00:35:47;;;;;;;6.28;5.07;;;1.90;99.90;;;;;;4945249;28;20054;-69
2023/04/06 00:38:13;;;;;;;6.72;4.85;;;1.90;99.90;;;;;;4935352;28;20317;-68
2023/04/06 00:40:39;;;;;;;7.85;4.75;;;1.90;99.90;;;;;;4958868;28;20039;-69
2023/04/06 00:43:09;;;;;;;5.15;4.43;;;1.90;99.90;;;;;;4951535;28;20097;-69
2023/04/06 00:45:35;;;;;;;6.53;4.60;;;2.00;99.90;;;;;;4952526;28;20039;-68
2023/04/06 00:48:01;;;;;;;7.47;4.82;;;2.00;99.90;;;;;;4947169;28;20137;-68
2023/04/06 00:50:28;;;;;;;6.00;4.32;;;2.00;99.90;;;;;;4949208;28;20081;-69
2023/04/06 00:52:55;;;;;;;7.40;4.68;;;2.00;99.90;;;;;;4957091;28;20407;-69
2023/04/06 00:55:21;;;;;;;8.82;5.20;;;1.90;99.90;;;;;;4948823;28;20046;-68
2023/04/06 00:57:47;;;;;;;6.15;4.70;;;1.90;99.90;;;;;;4956025;28;20047;-68
2023/04/06 01:00:13;;;;;;;6.68;5.05;;;1.90;99.90;;;;;;4947781;28;20049;-68
2023/04/06 01:02:39;;;;;;;6.63;4.75;;;1.90;99.90;;;;;;4949950;28;20039;-69
2023/04/06 01:05:06;;;;;;;6.28;4.60;;;1.80;99.90;;;;;;4935697;28;20046;-69
2023/04/06 01:07:32;;;;;;;8.75;5.20;;;1.80;99.90;;;;;;4944233;28;20042;-69
2023/04/06 01:09:58;;;;;;;6.43;4.72;;;1.80;99.90;;;;;;4981535;28;20053;-68
2023/04/06 01:12:24;;;;;;;7.85;5.40;;;1.80;99.90;;;;;;4961887;28;20047;-68
2023/04/06 01:14:50;;;;;;;6.80;4.63;;;1.80;99.90;;;;;;4949957;28;20035;-69
2023/04/06 01:17:16;;;;;;;6.72;4.60;;;1.80;99.90;;;;;;4943123;28;20035;-68
2023/04/06 01:19:42;;;;;;;7.35;4.80;;;1.70;99.90;;;;;;4950742;28;20038;-69
2023/04/06 01:22:08;;;;;;;8.32;4.90;;;1.70;99.90;;;;;;4943541;28;20130;-68
2023/04/06 01:24:34;;;;;;;6.95;4.97;;;1.70;99.90;;;;;;4957781;28;20472;-69
2023/04/06 01:27:01;;;;;;;6.82;4.88;;;1.70;99.90;;;;;;4949754;28;20137;-69
2023/04/06 01:29:27;;;;;;;5.72;4.70;;;1.70;99.90;;;;;;4964012;28;20043;-68
2023/04/06 01:31:52;;;;;;;7.18;5.07;;;1.60;99.90;;;;;;4941348;28;20105;-68
2023/04/06 01:34:18;;;;;;;7.25;4.72;;;1.60;99.90;;;;;;4974811;28;20037;-68
2023/04/06 01:36:44;;;;;;;8.25;5.63;;;1.60;99.90;;;;;;4978793;28;20414;-68
2023/04/06 01:39:10;;;;;;;5.75;4.90;;;1.70;99.90;;;;;;4948192;28;20031;-68
2023/04/06 01:41:36;;;;;;;6.55;5.72;;;1.60;99.90;;;;;;4957056;28;20039;-69
2023/04/06 01:44:02;;;;;;;6.95;5.30;;;1.60;99.90;;;;;;4945066;28;20074;-68
2023/04/06 01:46:28;;;;;;;7.72;5.20;;;1.50;99.90;;;;;;4948735;28;20117;-68
2023/04/06 01:48:54;;;;;;;7.63;5.22;;;1.50;99.90;;;;;;4944397;28;20495;-68
2023/04/06 01:51:20;;;;;;;6.57;5.25;;;1.50;99.90;;;;;;4943858;28;20067;-69
2023/04/06 01:53:45;;;;;;;6.32;5.15;;;1.50;99.90;;;;;;4956688;28;20114;-68
2023/04/06 01:56:11;;;;;;;7.50;5.38;;;1.40;99.90;;;;;;4934135;28;20505;-68
2023/04/06 01:58:37;;;;;;;5.78;4.88;;;1.40;99.90;;;;;;4951569;28;20043;-68
2023/04/06 02:01:03;;;;;;;6.90;5.15;;;1.40;99.90;;;;;;4944536;28;20070;-68
2023/04/06 02:03:28;;;;;;;7.80;5.05;;;1.50;99.90;;;;;;4944260;28;20058;-68
2023/04/06 02:05:54;;;;;;;6.88;5.22;;;1.40;99.90;;;;;;4980305;28;20123;-68
2023/04/06 02:08:20;;;;;;;7.18;5.03;;;1.50;99.90;;;;;;4962584;28;20542;-68
2023/04/06 02:10:45;;;;;;;8.65;5.35;;;1.40;99.90;;;;;;4962183;28;20043;-69
2023/04/06 02:13:11;;;;;;;7.97;5.35;;;1.40;99.90;;;;;;4962822;28;20039;-68
2023/04/06 02:15:37;;;;;;;7.43;5.32;;;1.40;99.90;;;;;;4951353;28;20035;-69
2023/04/06 02:18:03;;;;;;;6.80;4.88;;;1.40;99.90;;;;;;4949164;28;20376;-69
2023/04/06 02:20:28;;;;;;;9.00;5.80;;;1.40;99.90;;;;;;4935933;28;20110;-69
2023/04/06 02:22:58;;;;;;;7.40;5.43;;;1.40;99.90;;;;;;4979422;28;20076;-68
2023/04/06 02:25:24;;;;;;;6.20;5.45;;;1.30;99.90;;;;;;4949538;28;20042;-69
2023/04/06 02:27:50;;;;;;;7.85;5.18;;;1.30;99.90;;;;;;4946967;28;20054;-69
2023/04/06 02:30:16;;;;;;;8.25;5.88;;;1.30;99.90;;;;;;4968181;28;20031;-68
2023/04/06 02:32:41;;;;;;;8.57;6.25;;;1.20;99.90;;;;;;4949473;28;20050;-69
2023/04/06 02:35:08;;;;;;;6.03;5.32;;;1.10;99.90;;;;;;4950386;28;20061;-68
2023/04/06 02:37:33;;;;;;;8.77;5.53;;;1.10;99.90;;;;;;4967274;28;20031;-68
2023/04/06 02:39:59;;;;;;;7.85;5.50;;;1.10;99.90;;;;;;4961774;28;20034;-69
2023/04/06 02:42:25;;;;;;;7.15;5.47;;;1.00;99.90;;;;;;4960471;28;20050;-68
2023/04/06 02:44:50;;;;;;;8.02;5.68;;;1.00;99.90;;;;;;4949129;28;20050;-69
2023/04/06 02:47:16;;;;;;;8.90;5.63;;;1.00;99.90;;;;;;4951365;28;20057;-68
2023/04/06 02:49:42;;;;;;;6.47;5.72;;;1.00;99.90;;;;;;4959480;28;20086;-68
2023/04/06 02:52:08;;;;;;;8.43;6.15;;;1.00;99.90;;;;;;4952157;28;20570;-68
2023/04/06 02:54:33;;;;;;;7.13;5.93;;;1.00;99.90;;;;;;4931524;28;20043;-69
2023/04/06 02:56:59;;;;;;;5.75;5.07;;;1.00;99.90;;;;;;4934642;28;20143;-68
2023/04/06 02:59:26;;;;;;;6.63;5.93;;;1.00;99.90;;;;;;4944606;28;20046;-68
2023/04/06 03:01:51;;;;;;;6.22;5.45;;;1.00;99.90;;;;;;4964380;28;20174;-69
2023/04/06 03:04:17;;;;;;;8.02;5.78;;;1.00;99.90;;;;;;4948048;28;20056;-68
2023/04/06 03:06:43;;;;;;;8.02;6.00;;;0.90;99.90;;;;;;4948746;28;20055;-70
2023/04/06 03:09:08;;;;;;;6.47;5.40;;;1.00;99.90;;;;;;4946086;28;20040;-70
2023/04/06 03:11:34;;;;;;;8.98;5.97;;;0.90;99.90;;;;;;4947363;28;20502;-68
2023/04/06 03:14:00;;;;;;;8.82;6.10;;;1.00;99.90;;;;;;4950683;28;20495;-68
2023/04/06 03:16:26;;;;;;;7.53;5.93;;;1.00;99.90;;;;;;4948308;28;20034;-68
2023/04/06 03:18:51;;;;;;;8.38;5.90;;;0.90;99.90;;;;;;4963726;28;20085;-68
2023/04/06 03:21:19;;;;;;;7.13;5.50;;;0.90;99.90;;;;;;4947850;28;20243;-68
2023/04/06 03:23:44;;;;;;;7.78;5.22;;;1.00;99.90;;;;;;4979756;28;20493;-68
2023/04/06 03:26:10;;;;;;;7.85;5.97;;;0.90;99.90;;;;;;4945695;28;20039;-69
2023/04/06 03:28:36;;;;;;;8.00;5.72;;;1.00;99.90;;;;;;4959662;28;20038;-68
2023/04/06 03:31:01;;;;;;;7.15;5.13;;;0.90;99.90;;;;;;4960969;28;20078;-69
2023/04/06 03:33:27;;;;;;;8.00;5.70;;;1.00;99.90;;;;;;4949128;28;20461;-68
2023/04/06 03:35:53;;;;;;;9.43;5.65;;;1.00;99.90;;;;;;4965544;28;20034;-68
2023/04/06 03:38:22;;;;;;;8.07;5.80;;;0.90;99.90;;;;;;4946395;28;20085;-68
2023/04/06 03:40:48;;;;;;;6.80;5.45;;;0.90;99.90;;;;;;4949291;28;20075;-69
2023/04/06 03:43:14;;;;;;;9.40;5.97;;;0.90;99.90;;;;;;4946067;28;20034;-69
2023/04/06 03:45:39;;;;;;;6.65;5.93;;;0.90;99.90;;;;;;4950019;28;20487;-68
2023/04/06 03:48:05;;;;;;;7.53;6.05;;;0.90;99.90;;;;;;4944839;28;20039;-69
2023/04/06 03:50:31;;;;;;;8.15;6.15;;;0.80;99.90;;;;;;4949666;28;20069;-68
2023/04/06 03:52:57;;;;;;;9.43;6.32;;;0.80;99.90;;;;;;4944637;28;20416;-69
2023/04/06 03:55:23;;;;;;;7.35;6.15;;;0.70;99.90;;;;;;4951391;28;20055;-68
2023/04/06 03:57:48;;;;;;;9.23;5.75;;;0.70;99.90;;;;;;4948863;28;20920;-70
2023/04/06 04:00:15;;;;;;;7.43;6.65;;;0.70;99.90;;;;;;4948733;28;20177;-69
2023/04/06 04:02:40;;;;;;;9.07;6.50;;;0.70;99.90;;;;;;4945297;28;20128;-69
2023/04/06 04:05:06;;;;;;;10.80;6.32;;;0.70;99.90;;;;;;4945506;28;20095;-68
2023/04/06 04:07:32;;;;;;;10.43;6.38;;;0.60;99.90;;;;;;4946538;28;20047;-69
2023/04/06 04:09:58;;;;;;;8.35;5.85;;;0.70;99.90;;;;;;4951394;28;20411;-68
2023/04/06 04:12:23;;;;;;;9.07;6.53;;;0.70;99.90;;;;;;4959125;28;20439;-68
2023/04/06 04:14:49;;;;;;;9.07;6.53;;;0.70;99.90;;;;;;4962932;28;20043;-67
2023/04/06 04:17:16;;;;;;;9.45;6.35;;;0.60;99.90;;;;;;4974291;28;20047;-68
2023/04/06 04:19:42;;;;;;;9.82;7.05;;;0.60;99.90;;;;;;4962786;28;20073;-68
2023/04/06 04:22:08;;;;;;;11.32;7.15;;;0.60;99.90;;;;;;4980363;28;20128;-68
2023/04/06 04:24:33;;;;;;;6.82;6.10;;;0.60;99.90;;;;;;4945215;28;20074;-68
2023/04/06 04:27:00;;;;;;;9.00;6.03;;;0.50;99.90;;;;;;4945902;28;20055;-67
2023/04/06 04:29:26;;;;;;;8.77;6.82;;;0.60;99.90;;;;;;4948002;28;20043;-67
2023/04/06 04:31:52;;;;;;;12.70;7.43;;;0.50;99.90;;;;;;4948582;28;20618;-67
2023/04/06 04:34:24;;;;;;;8.07;6.18;;;0.50;99.90;;;;;;4950021;28;20039;-68
2023/04/06 04:36:51;;;;;;;8.18;6.82;;;0.50;99.90;;;;;;4963361;28;20042;-68
2023/04/06 04:39:16;;;;;;;8.75;6.78;;;0.50;99.90;;;;;;4947808;28;20085;-68
2023/04/06 04:41:42;;;;;;;10.77;7.47;;;0.50;99.90;;;;;;4962632;28;20495;-67
2023/04/06 04:44:08;;;;;;;9.35;7.07;;;0.50;99.90;;;;;;4946047;28;20039;-68
2023/04/06 04:46:34;;;;;;;8.85;7.15;;;0.50;99.90;;;;;;4934605;28;20158;-68
2023/04/06 04:49:00;;;;;;;9.82;7.60;;;0.40;99.90;;;;;;4945427;28;20134;-68
2023/04/06 04:51:26;;;;;;;10.82;6.75;;;0.40;99.90;;;;;;4943335;28;20580;-67
2023/04/06 04:53:51;;;;;;;9.60;6.90;;;0.50;99.90;;;;;;4960455;28;20050;-69
2023/04/06 04:56:17;;;;;;;10.63;7.70;;;0.50;99.90;;;;;;4948587;28;20090;-68
2023/04/06 04:58:43;;;;;;;9.05;6.50;;;0.40;99.90;;;;;;4951188;28;20486;-68
2023/04/06 05:01:09;;;;;;;9.40;6.90;;;0.40;99.90;;;;;;4944561;28;20082;-69
2023/04/06 05:03:38;;;;;;;12.50;8.60;;;0.40;99.90;;;;;;4984711;28;20078;-69
2023/04/06 05:06:04;;;;;;;14.77;11.02;;;0.40;99.90;;;;;;4977893;28;20040;-69
2023/04/06 05:08:30;;;;;;;9.82;7.68;;;0.40;99.90;;;;;;4934026;28;20061;-67
2023/04/06 05:10:56;;;;;;;10.40;7.25;;;0.30;99.90;;;;;;4932076;28;20054;-68
2023/04/06 05:13:22;;;;;;;11.70;7.78;;;0.30;99.90;;;;;;4978076;28;20343;-68
2023/04/06 05:15:48;;;;;;;8.80;7.65;;;0.30;99.90;;;;;;4982182;28;20046;-68
2023/04/06 05:18:14;;;;;;;9.35;7.57;;;0.40;99.90;;;;;;4977403;28;20114;-68
2023/04/06 05:20:40;;;;;;;10.23;7.38;;;0.40;99.90;;;;;;4949426;28;20043;-69
2023/04/06 05:23:06;;;;;;;9.32;7.07;;;0.40;99.90;;;;;;4944078;28;20066;-67
2023/04/06 05:25:35;;;;;;;7.85;7.05;;;0.40;99.90;;;;;;4947160;28;20157;-68
2023/04/06 05:28:01;;;;;;;8.52;7.10;;;0.50;99.90;;;;;;4975513;28;20138;-67
2023/04/06 05:30:26;;;;;;;10.93;7.75;;;0.50;99.90;;;;;;4960630;28;20122;-68
2023/04/06 05:32:52;;;;;;;11.80;7.47;;;0.60;99.90;;;;;;4975937;28;20354;-67
2023/04/06 05:35:18;;;;;;;9.10;7.88;;;0.70;99.90;;;;;;4966399;28;20451;-68
2023/04/06 05:37:44;;;;;;;9.10;6.88;;;0.70;99.90;;;;;;4948216;28;20043;-67
2023/04/06 05:40:10;;;;;;;9.10;7.57;;;0.80;99.90;;;;;;4963172;28;20039;-68
2023/04/06 05:42:42;;;;;;;10.45;7.60;;;0.80;99.90;;;;;;4963477;28;20051;-67
2023/04/06 05:45:10;;;;;;;12.57;8.45;;;0.90;99.90;;;;;;4950982;28;20138;-68
2023/04/06 05:47:37;;;;;;;9.30;7.70;;;0.90;99.90;;;;;;4950599;28;20117;-68
2023/04/06 05:50:03;;;;;;;10.45;7.85;;;1.00;99.90;;;;;;4952133;28;20066;-67
2023/04/06 05:52:47;;;;;;;9.90;7.32;;;1.20;99.90;;;;;;4953415;28;20098;-68
2023/04/06 05:55:13;;;;;;;8.80;7.45;;;1.30;99.90;;;;;;4952058;28;20045;-69
2023/04/06 05:57:39;;;;;;;9.95;7.90;;;1.40;99.90;;;;;;4985263;28;20427;-68
2023/04/06 06:00:08;;;;;;;10.93;7.75;;;1.50;99.90;;;;;;4965412;28;20094;-69
2023/04/06 06:02:34;;;;;;;12.68;8.00;;;1.60;99.90;;;;;;4953548;28;20030;-68
2023/04/06 06:05:00;;;;;;;12.27;7.70;;;1.70;99.90;;;;;;4952889;28;20042;-68
2023/04/06 06:07:25;;;;;;;13.32;8.25;;;1.80;99.90;;;;;;4949032;28;20463;-68
2023/04/06 06:09:51;;;;;;;10.80;7.20;;;1.90;99.90;;;;;;4966757;28;20047;-69
2023/04/06 06:12:17;;;;;;;14.23;7.45;;;2.00;99.90;;;;;;4947652;28;20519;-69
2023/04/06 06:14:43;;;;;;;12.55;7.88;;;2.00;99.90;;;;;;4963647;28;20463;-69
2023/04/06 06:17:08;;;;;;;9.82;7.45;;;2.10;99.90;;;;;;4968257;28;20562;-69
2023/04/06 06:19:34;;;;;;;9.60;7.20;;;2.20;99.90;;;;;;4962765;28;20047;-68
2023/04/06 06:22:02;;;;;;;12.00;7.75;;;2.30;99.90;;;;;;4952269;28;20083;-69
2023/04/06 06:24:28;;;;;;;12.13;7.63;;;2.40;99.90;;;;;;4932557;28;20038;-68
2023/04/06 06:26:54;;;;;;;7.90;6.60;;;2.50;99.90;;;;;;4951322;28;20402;-69
2023/04/06 06:29:19;;;;;;;11.05;8.20;;;2.60;99.90;;;;;;4937661;28;20035;-68
2023/04/06 06:31:45;;;;;;;11.45;7.68;;;2.80;99.90;;;;;;4952257;28;20046;-69
2023/04/06 06:34:12;;;;;;;9.98;7.75;;;2.80;99.90;;;;;;4964594;28;20043;-69
2023/04/06 06:36:38;;;;;;;9.30;7.30;;;3.00;99.90;;;;;;4951684;28;20035;-70
2023/04/06 06:39:04;;;;;;;9.45;7.85;;;3.00;99.90;;;;;;4968880;28;20061;-69
2023/04/06 06:41:30;;;;;;;11.15;8.35;;;3.20;99.90;;;;;;4964531;28;20038;-69
2023/04/06 06:43:55;;;;;;;10.43;7.85;;;3.30;99.90;;;;;;4945546;28;20047;-69
2023/04/06 06:46:21;;;;;;;10.77;7.40;;;3.40;99.90;;;;;;4945737;28;20221;-69
2023/04/06 06:48:47;;;;;;;10.07;7.85;;;3.50;99.90;;;;;;4935284;28;20689;-69
2023/04/06 06:51:13;;;;;;;9.38;7.78;;;3.70;99.90;;;;;;4947145;28;20065;-70
2023/04/06 06:53:38;;;;;;;10.88;8.15;;;3.70;99.90;;;;;;4948090;28;20047;-64
2023/04/06 06:56:22;;;;;;;9.32;8.27;;;3.80;99.90;;;;;;4948805;28;20039;-65
2023/04/06 06:58:48;;;;;;;10.38;8.13;;;4.00;99.90;;;;;;4949661;28;20044;-67
2023/04/06 07:01:13;;;;;;;10.98;7.60;;;4.10;99.90;;;;;;4950135;28;20051;-68
2023/04/06 07:03:39;;;;;;;10.48;8.27;;;4.30;99.90;;;;;;4948301;28;20043;-66
2023/04/06 07:06:05;;;;;;;9.90;7.55;;;4.40;99.90;;;;;;4972679;28;20097;-69
2023/04/06 07:08:30;;;;;;;10.90;7.75;;;4.60;99.90;;;;;;4946460;28;20113;-68
2023/04/06 07:10:56;;;;;;;9.85;7.68;;;4.70;99.90;;;;;;4980462;28;20070;-69
2023/04/06 07:13:23;;;;;;;11.40;8.32;;;4.80;99.90;;;;;;4950939;28;20170;-70
2023/04/06 07:15:51;;;;;;;10.93;8.15;;;5.00;99.90;;;;;;4956413;28;20452;-68
2023/04/06 07:18:18;;;;;;;8.82;7.72;;;5.20;99.90;;;;;;4945729;28;20396;-69
2023/04/06 07:20:44;;;;;;;10.52;7.95;;;5.40;99.90;;;;;;4945988;28;20040;-70
2023/04/06 07:23:10;;;;;;;10.10;8.38;;;5.60;99.90;;;;;;4946466;28;20050;-69
2023/04/06 07:25:35;;;;;;;9.65;7.90;;;5.70;99.90;;;;;;4939086;28;20368;-69
2023/04/06 07:28:02;;;;;;;11.50;8.43;;;6.00;99.90;;;;;;4966076;28;20509;-66
2023/04/06 07:30:28;;;;;;;10.30;8.40;;;6.20;99.90;;;;;;4958970;28;20408;-69
2023/04/06 07:32:58;;;;;;;12.25;9.20;;;6.40;99.90;;;;;;4943589;28;20043;-68
2023/04/06 07:35:26;;;;;;;12.07;8.38;;;6.70;99.90;;;;;;4940342;28;20047;-70
2023/04/06 07:37:52;;;;;;;11.82;9.30;;;6.90;99.90;;;;;;4947310;28;20039;-67
2023/04/06 07:40:21;;;;;;;9.50;8.48;;;7.20;99.90;;;;;;4960487;28;20039;-67
2023/04/06 07:42:46;;;;;;;10.23;8.48;;;7.60;99.90;;;;;;4947770;28;20035;-68
2023/04/06 07:45:13;;;;;;;10.45;8.48;;;8.10;99.90;;;;;;4941745;28;20035;-69
2023/04/06 07:47:38;;;;;;;11.82;8.30;;;8.50;99.90;;;;;;4944430;28;20082;-69
2023/04/06 07:50:05;;;;;;;12.85;8.30;;;9.20;99.90;;;;;;4948607;28;20039;-70
2023/04/06 07:52:33;;;;;;;15.25;8.75;;;9.90;99.90;;;;;;4954545;28;20055;-68
2023/04/06 07:54:59;;;;;;;11.20;8.32;;;10.30;99.90;;;;;;4942874;28;20083;-69
2023/04/06 07:57:25;;;;;;;9.82;8.77;;;10.90;99.90;;;;;;4927147;29;20078;-70
2023/04/06 07:59:51;;;;;;;9.25;8.20;;;11.30;99.90;;;;;;4944850;28;20051;-69
2023/04/06 08:02:17;;;;;;;11.30;8.77;;;11.50;99.40;;;;;;4974096;28;20532;-69
2023/04/06 08:04:44;;;;;;;9.60;8.45;;;11.70;99.40;;;;;;4939585;28;20144;-69
2023/04/06 08:07:10;;;;;;;10.05;8.60;;;12.00;99.50;;;;;;4975618;28;20395;-69
2023/04/06 08:09:35;;;;;;;12.73;8.70;;;12.30;98.80;;;;;;4948933;28;20039;-69
2023/04/06 08:12:01;;;;;;;11.30;8.70;;;12.80;98.10;;;;;;4943557;28;20044;-69
2023/04/06 08:14:27;;;;;;;8.82;7.95;;;13.30;96.20;;;;;;4942374;28;20066;-68
2023/04/06 08:16:52;;;;;;;10.00;8.60;;;13.70;96.40;;;;;;4974826;28;20043;-70
2023/04/06 08:19:18;;;;;;;10.68;8.85;;;14.00;95.20;;;;;;4945896;28;20090;-69
2023/04/06 08:21:45;;;;;;;11.13;8.68;;;14.50;95.00;;;;;;4940851;28;20039;-69
2023/04/06 08:24:12;;;;;;;10.05;8.45;;;14.50;92.30;;;;;;4927553;28;20511;-69
2023/04/06 08:26:37;;;;;;;9.85;8.13;;;14.30;91.70;;;;;;4943353;28;20094;-69
2023/04/06 08:29:04;;;;;;;9.95;8.30;;;14.50;90.90;;;;;;4947884;28;20460;-69
2023/04/06 08:31:32;;;;;;;11.43;8.40;;;14.60;89.50;;;;;;4941422;28;20054;-69
2023/04/06 08:33:57;;;;;;;9.75;8.85;;;14.30;87.80;;;;;;4972406;28;20462;-70
2023/04/06 08:36:23;;;;;;;9.88;8.80;;;13.80;87.60;;;;;;4946002;28;20036;-69
2023/04/06 08:38:50;;;;;;;9.98;8.77;;;13.50;86.70;;;;;;4953814;28;20098;-70
2023/04/06 08:41:17;;;;;;;10.18;8.90;;;13.40;85.80;;;;;;4945051;28;20121;-69
2023/04/06 08:43:58;;;;;;;10.68;8.95;;;13.70;86.20;;;;;;4928115;29;20039;-70
2023/04/06 08:46:29;;;;;;;10.60;9.05;;;13.50;84.50;;;;;;4949055;28;20143;-69
2023/04/06 08:48:56;;;;;;;9.60;8.60;;;13.20;83.90;;;;;;4945625;28;20058;-70
2023/04/06 08:51:26;;;;;;;10.45;8.88;;;13.00;84.50;;;;;;4949235;28;20047;-70
2023/04/06 08:53:56;;;;;;;12.80;9.30;;;12.70;85.10;;;;;;4952734;28;20186;-69
2023/04/06 08:56:23;;;;;;;10.93;9.07;;;12.60;85.80;;;;;;4948812;28;20046;-69
2023/04/06 08:58:50;;;;;;;10.73;9.10;;;12.50;86.40;;;;;;4929657;28;20454;-69
2023/04/06 09:01:20;;;;;;;11.90;9.48;;;12.40;86.20;;;;;;4944145;28;20561;-66
2023/04/06 09:03:47;;;;;;;10.68;9.57;;;12.30;86.50;;;;;;4967660;28;20030;-70
2023/04/06 09:06:13;;;;;;;13.23;10.13;;;12.30;86.40;;;;;;4941645;28;20157;-69
2023/04/06 09:08:40;;;;;;;15.93;11.20;;;12.20;87.70;;;;;;4948002;28;20065;-71
2023/04/06 09:11:06;;;;;;;15.55;10.70;;;12.30;86.70;;;;;;4946128;28;20104;-70
2023/04/06 09:13:48;;;;;;;176.07;59.17;;;12.30;86.50;;;;;;4945037;28;20047;-72
2023/04/06 09:16:14;;;;;;;17.02;11.73;;;12.40;90.10;;;;;;4953262;28;20046;-69
2023/04/06 09:18:40;;;;;;;11.23;10.05;;;12.50;88.10;;;;;;4965364;28;20137;-72
2023/04/06 09:21:07;;;;;;;19.73;12.52;;;12.50;88.00;;;;;;4957998;28;20113;-67
2023/04/06 09:23:33;;;;;;;14.13;11.40;;;12.50;85.90;;;;;;4954369;28;20038;-70
2023/04/06 09:26:11;;;;;;;13.90;10.50;;;12.40;87.50;;;;;;4952831;28;20073;-69
2023/04/06 09:28:51;;;;;;;13.00;10.95;;;12.40;83.80;;;;;;4973132;28;20097;-69
2023/04/06 09:31:25;;;;;;;15.13;11.00;;;12.30;84.80;;;;;;4972260;28;20380;-68
2023/04/06 09:33:51;;;;;;;14.50;11.20;;;12.30;86.10;;;;;;4954640;28;20603;-68
2023/04/06 09:36:18;;;;;;;13.88;11.75;;;12.60;86.70;;;;;;4931526;28;20043;-66
2023/04/06 09:39:02;;;;;;;379.23;122.90;;;12.90;85.70;;;;;;4974525;28;20038;-67
2023/04/06 09:41:30;;;;;;;15.02;12.32;;;13.00;92.50;;;;;;4968957;28;20078;-70
2023/04/06 09:44:05;;;;;;;23.27;14.32;;;13.00;90.00;;;;;;4955714;28;20082;-69
2023/04/06 09:46:32;;;;;;;;;;;12.90;89.40;;;;;;4951039;28;20518;-74
2023/04/06 09:48:59;;;;;;;19.42;14.27;;;12.80;91.40;;;;;;4958801;28;20358;-73
2023/04/06 09:51:27;;;;;;;14.20;12.10;;;12.60;91.10;;;;;;4955331;28;20067;-72
2023/04/06 09:53:55;;;;;;;13.88;11.45;;;12.70;89.40;;;;;;4955782;28;20043;-72
2023/04/06 09:56:29;;;;;;;15.05;12.20;;;13.10;87.80;;;;;;4950005;28;20561;-70
2023/04/06 09:59:02;;;;;;;145.80;38.08;;;13.70;85.50;;;;;;4954506;28;20463;-71
2023/04/06 10:01:31;;;;;;;16.98;13.77;;;13.80;87.90;;;;;;4960321;28;20113;-71
2023/04/06 10:04:21;;;;;;;14.68;12.82;;;14.00;87.20;;;;;;4957226;28;20062;-71
2023/04/06 10:06:52;;;;;;;16.65;14.35;;;14.20;82.40;;;;;;4952354;28;20046;-71
2023/04/06 10:09:20;;;;;;;20.92;14.05;;;14.30;79.30;;;;;;4960807;28;20046;-71
2023/04/06 10:11:47;;;;;;;14.63;13.13;;;14.60;79.40;;;;;;4939001;28;20038;-71
2023/04/06 10:14:13;;;;;;;16.58;14.75;;;14.90;78.00;;;;;;4954992;28;20051;-71
2023/04/06 10:16:39;;;;;;;20.35;15.48;;;15.30;78.20;;;;;;4951557;28;20050;-71
2023/04/06 10:19:16;;;;;;;19.00;14.60;;;15.40;75.30;;;;;;4947898;28;20046;-72
2023/04/06 10:21:45;;;;;;;17.65;14.98;;;15.30;70.70;;;;;;4937494;28;20444;-72
2023/04/06 10:24:13;;;;;;;17.63;15.32;;;15.10;71.00;;;;;;4954525;28;20052;-72
2023/04/06 10:26:39;;;;;;;20.50;16.95;;;15.10;73.00;;;;;;4951982;28;20371;-73
2023/04/06 10:29:06;;;;;;;17.35;15.52;;;15.20;70.90;;;;;;4954355;28;20134;-72
2023/04/06 10:31:32;;;;;;;21.90;15.57;;;15.40;70.40;;;;;;4952801;28;20071;-72
2023/04/06 10:34:02;;;;;;;30.35;19.05;;;15.80;72.30;;;;;;4953779;28;20499;-72
2023/04/06 10:36:32;;;;;;;20.08;15.65;;;15.80;69.30;;;;;;4945524;28;20124;-72
2023/04/06 10:39:00;;;;;;;20.23;16.77;;;15.40;69.10;;;;;;4935764;28;20398;-73
2023/04/06 10:41:43;;;;;;;18.80;15.85;;;15.10;69.30;;;;;;4950167;28;20058;-72
2023/04/06 10:44:24;;;;;;;19.65;17.13;;;14.90;68.60;;;;;;4966026;28;20133;-67
2023/04/06 10:46:57;;;;;;;22.13;15.80;;;14.70;69.70;;;;;;4963813;28;20046;-64
2023/04/06 10:49:25;;;;;;;18.85;15.60;;;14.60;70.40;;;;;;4970076;28;20074;-66
2023/04/06 10:51:54;;;;;;;18.67;15.85;;;14.40;71.90;;;;;;4968690;28;20054;-66
2023/04/06 10:54:25;;;;;;;22.50;17.52;;;14.30;71.70;;;;;;4969017;28;20042;-65
2023/04/06 10:56:51;;;;;;;20.90;17.65;;;14.30;71.30;;;;;;4961142;28;20451;-66
2023/04/06 10:59:21;;;;;;;19.27;17.17;;;14.30;70.60;;;;;;4934053;28;20043;-68
2023/04/06 11:01:47;;;;;;;24.25;19.75;;;14.30;71.80;;;;;;4949781;28;20046;-66
2023/04/06 11:04:20;;;;;;;22.77;19.30;;;14.30;70.60;;;;;;4961728;28;20045;-66
2023/04/06 11:06:49;;;;;;;23.02;19.40;;;14.20;69.80;;;;;;4965999;28;20621;-66
2023/04/06 11:09:31;;;;;;;21.48;19.00;;;14.00;69.40;;;;;;4949567;28;20047;-66
2023/04/06 11:11:57;;;;;;;22.33;19.88;;;13.90;70.90;;;;;;4951647;28;20082;-65
2023/04/06 11:14:23;;;;;;;23.80;20.48;;;13.80;70.90;;;;;;4945819;28;20459;-66
2023/04/06 11:16:49;;;;;;;24.20;20.70;;;13.70;68.20;;;;;;4969795;28;20598;-66
2023/04/06 11:19:15;;;;;;;22.73;19.80;;;13.50;68.90;;;;;;4968351;28;20458;-66
2023/04/06 11:21:46;;;;;;;25.20;20.83;;;13.30;69.80;;;;;;4979523;28;20051;-66
2023/04/06 11:24:19;;;;;;;26.05;22.08;;;13.30;69.10;;;;;;4958375;28;20051;-66
2023/04/06 11:26:45;;;;;;;25.13;20.38;;;13.30;69.60;;;;;;4970795;28;20078;-67
2023/04/06 11:29:16;;;;;;;24.50;20.23;;;13.20;70.10;;;;;;4968159;28;20416;-68
2023/04/06 11:31:47;;;;;;;23.80;20.23;;;13.20;69.10;;;;;;4967042;28;20110;-68
2023/04/06 11:34:16;;;;;;;25.90;20.63;;;13.30;69.10;;;;;;4963167;28;20156;-68
2023/04/06 11:36:44;;;;;;;24.92;20.98;;;13.30;69.50;;;;;;4967781;28;20365;-67
2023/04/06 11:39:17;;;;;;;23.73;20.63;;;13.40;69.40;;;;;;4946793;28;20502;-69
2023/04/06 11:41:51;;;;;;;27.52;21.23;;;13.50;69.30;;;;;;4960481;28;20031;-68
2023/04/06 11:44:33;;;;;;;24.20;20.15;;;13.50;68.40;;;;;;4963779;28;20042;-68
2023/04/06 11:47:00;;;;;;;26.20;20.35;;;13.70;66.90;;;;;;4967648;28;20039;-68
2023/04/06 11:49:30;;;;;;;22.88;20.38;;;13.80;67.90;;;;;;4948126;28;20081;-67
2023/04/06 11:51:57;;;;;;;23.52;21.00;;;13.90;66.90;;;;;;4941905;28;20443;-71
2023/04/06 11:54:51;;;;;;;24.42;21.85;;;13.90;67.80;;;;;;4947706;28;20090;-71
2023/04/06 11:57:18;;;;;;;23.63;20.83;;;13.90;66.70;;;;;;4942659;28;20123;-70
2023/04/06 11:59:44;;;;;;;23.48;20.63;;;13.80;67.90;;;;;;4945955;28;20055;-70
2023/04/06 12:02:10;;;;;;;24.90;20.70;;;13.80;68.30;;;;;;4977840;28;20040;-70
2023/04/06 12:04:37;;;;;;;26.00;21.05;;;13.70;67.40;;;;;;4948315;28;20036;-70
2023/04/06 12:07:03;;;;;;;24.90;21.30;;;13.90;67.80;;;;;;4976108;28;20050;-70
2023/04/06 12:09:29;;;;;;;22.60;19.63;;;14.10;67.10;;;;;;4945635;28;21303;-71
2023/04/06 12:11:55;;;;;;;21.77;18.63;;;14.30;68.00;;;;;;4938424;28;20460;-72
2023/04/06 12:14:21;;;;;;;23.00;20.45;;;14.40;66.70;;;;;;4946032;28;20121;-69
2023/04/06 12:16:47;;;;;;;23.20;20.45;;;14.60;67.60;;;;;;4933003;29;20094;-70
2023/04/06 12:19:13;;;;;;;24.52;19.67;;;14.90;67.90;;;;;;4947280;28;20548;-69
2023/04/06 12:21:40;;;;;;;24.13;19.80;;;15.20;67.10;;;;;;4939840;28;20047;-70
2023/04/06 12:24:06;;;;;;;22.98;20.33;;;15.40;66.10;;;;;;4947260;28;20043;-70
2023/04/06 12:26:33;;;;;;;22.08;19.48;;;15.50;66.10;;;;;;4945784;28;20380;-70
2023/04/06 12:29:06;;;;;;;23.27;19.73;;;15.60;65.30;;;;;;4947612;28;20443;-70
2023/04/06 12:31:34;;;;;;;22.23;19.52;;;15.60;65.50;;;;;;4942250;28;20079;-71
2023/04/06 12:34:01;;;;;;;21.77;19.27;;;15.50;65.60;;;;;;4944007;28;20043;-70
2023/04/06 12:36:27;;;;;;;25.17;20.25;;;15.30;65.10;;;;;;4980648;28;20399;-71
2023/04/06 12:38:54;;;;;;;21.30;19.13;;;15.20;64.80;;;;;;4944005;28;20040;-70
2023/04/06 12:41:20;;;;;;;23.70;20.13;;;15.00;64.80;;;;;;4925105;29;20046;-71
2023/04/06 12:43:46;;;;;;;22.23;19.33;;;14.80;65.40;;;;;;4943670;28;20039;-70
2023/04/06 12:46:12;;;;;;;22.05;19.50;;;14.60;64.10;;;;;;4941203;28;20045;-70